sensor_id;sensor_type;location;lat;lon;timestamp;temperature;humidity
22738;DHT22;11536;50.860;4.286;2024-03-22T00:01:48;13.70;99.90
22738;DHT22;11536;50.860;4.286;2024-03-22T00:04:14;13.70;99.90
22738;DHT22;11536;50.860;4.286;2024-03-22T00:06:42;13.70;99.90
22738;DHT22;11536;50.860;4.286;2024-03-22T00:09:08;13.70;99.90
22738;DHT22;11536;50.860;4.286;2024-03-22T00:11:33;13.70;99.90
22738;DHT22;11536;50.860;4.286;2024-03-22T00:13:59;13.70;99.90
22738;DHT22;11536;50.860;4.286;2024-03-22T00:16:25;13.70;99.90
22738;DHT22;11536;50.860;4.286;2024-03-22T00:18:50;13.70;99.90
22738;DHT22;11536;50.860;4.286;2024-03-22T00:21:16;13.70;99.90
22738;DHT22;11536;50.860;4.286;2024-03-22T00:23:43;13.80;99.90
22738;DHT22;11536;50.860;4.286;2024-03-22T00:26:08;13.70;99.90
22738;DHT22;11536;50.860;4.286;2024-03-22T00:28:34;13.70;99.90
22738;DHT22;11536;50.860;4.286;2024-03-22T00:31:00;13.80;99.90
22738;DHT22;11536;50.860;4.286;2024-03-22T00:33:25;13.70;99.90
22738;DHT22;11536;50.860;4.286;2024-03-22T00:35:51;13.70;99.90
22738;DHT22;11536;50.860;4.286;2024-03-22T00:38:16;13.70;99.90
22738;DHT22;11536;50.860;4.286;2024-03-22T00:40:42;13.70;99.90
22738;DHT22;11536;50.860;4.286;2024-03-22T00:43:09;13.70;99.90
22738;DHT22;11536;50.860;4.286;2024-03-22T00:45:34;13.70;99.90
22738;DHT22;11536;50.860;4.286;2024-03-22T00:48:00;13.70;99.90
22738;DHT22;11536;50.860;4.286;2024-03-22T00:50:25;13.70;99.90
22738;DHT22;11536;50.860;4.286;2024-03-22T00:52:51;13.70;99.90
22738;DHT22;11536;50.860;4.286;2024-03-22T00:55:18;13.70;99.90
22738;DHT22;11536;50.860;4.286;2024-03-22T00:57:44;13.70;99.90
22738;DHT22;11536;50.860;4.286;2024-03-22T01:00:10;13.60;99.90
22738;DHT22;11536;50.860;4.286;2024-03-22T01:02:36;13.60;99.90
22738;DHT22;11536;50.860;4.286;2024-03-22T01:05:01;13.60;99.90
22738;DHT22;11536;50.860;4.286;2024-03-22T01:07:27;13.50;99.90
22738;DHT22;11536;50.860;4.286;2024-03-22T01:09:52;13.50;99.90
22738;DHT22;11536;50.860;4.286;2024-03-22T01:12:18;13.50;99.90
22738;DHT22;11536;50.860;4.286;2024-03-22T01:14:44;13.50;99.90
22738;DHT22;11536;50.860;4.286;2024-03-22T01:17:09;13.40;99.90
22738;DHT22;11536;50.860;4.286;2024-03-22T01:19:35;13.40;99.90
22738;DHT22;11536;50.860;4.286;2024-03-22T01:22:00;13.40;99.90
22738;DHT22;11536;50.860;4.286;2024-03-22T01:24:26;13.40;99.90
22738;DHT22;11536;50.860;4.286;2024-03-22T01:26:51;13.30;99.90
22738;DHT22;11536;50.860;4.286;2024-03-22T01:29:17;13.30;99.90
22738;DHT22;11536;50.860;4.286;2024-03-22T01:31:42;13.30;99.90
22738;DHT22;11536;50.860;4.286;2024-03-22T01:34:08;13.20;99.90
22738;DHT22;11536;50.860;4.286;2024-03-22T01:36:34;13.20;99.90
22738;DHT22;11536;50.860;4.286;2024-03-22T01:38:59;13.20;99.90
22738;DHT22;11536;50.860;4.286;2024-03-22T01:41:25;13.20;99.90
22738;DHT22;11536;50.860;4.286;2024-03-22T01:43:51;13.20;99.90
22738;DHT22;11536;50.860;4.286;2024-03-22T01:46:16;13.20;99.90
22738;DHT22;11536;50.860;4.286;2024-03-22T01:48:42;13.20;99.90
22738;DHT22;11536;50.860;4.286;2024-03-22T01:51:08;13.20;99.90
22738;DHT22;11536;50.860;4.286;2024-03-22T01:53:35;13.20;99.90
22738;DHT22;11536;50.860;4.286;2024-03-22T01:56:02;13.20;99.90
22738;DHT22;11536;50.860;4.286;2024-03-22T01:58:28;13.20;99.90
22738;DHT22;11536;50.860;4.286;2024-03-22T02:00:54;13.10;99.90
22738;DHT22;11536;50.860;4.286;2024-03-22T02:03:20;13.10;99.90
22738;DHT22;11536;50.860;4.286;2024-03-22T02:05:46;13.00;99.90
22738;DHT22;11536;50.860;4.286;2024-03-22T02:08:11;13.00;99.90
22738;DHT22;11536;50.860;4.286;2024-03-22T02:10:37;13.00;99.90
22738;DHT22;11536;50.860;4.286;2024-03-22T02:13:02;13.00;99.90
22738;DHT22;11536;50.860;4.286;2024-03-22T02:15:28;13.00;99.90
22738;DHT22;11536;50.860;4.286;2024-03-22T02:17:54;12.90;99.90
22738;DHT22;11536;50.860;4.286;2024-03-22T02:20:19;12.90;99.90
22738;DHT22;11536;50.860;4.286;2024-03-22T02:22:45;12.90;99.90
22738;DHT22;11536;50.860;4.286;2024-03-22T02:25:11;12.90;99.90
22738;DHT22;11536;50.860;4.286;2024-03-22T02:27:38;12.90;99.90
22738;DHT22;11536;50.860;4.286;2024-03-22T02:30:04;12.90;99.90
22738;DHT22;11536;50.860;4.286;2024-03-22T02:32:30;12.90;99.90
22738;DHT22;11536;50.860;4.286;2024-03-22T02:34:55;12.90;99.90
22738;DHT22;11536;50.860;4.286;2024-03-22T02:37:21;12.90;99.90
22738;DHT22;11536;50.860;4.286;2024-03-22T02:39:46;12.90;99.90
22738;DHT22;11536;50.860;4.286;2024-03-22T02:42:12;12.90;99.90
22738;DHT22;11536;50.860;4.286;2024-03-22T02:44:38;12.90;99.90
22738;DHT22;11536;50.860;4.286;2024-03-22T02:47:08;12.90;99.90
22738;DHT22;11536;50.860;4.286;2024-03-22T02:49:34;12.80;99.90
22738;DHT22;11536;50.860;4.286;2024-03-22T02:52:00;12.80;99.90
22738;DHT22;11536;50.860;4.286;2024-03-22T02:54:26;12.80;99.90
22738;DHT22;11536;50.860;4.286;2024-03-22T02:56:51;12.80;99.90
22738;DHT22;11536;50.860;4.286;2024-03-22T02:59:17;12.80;99.90
22738;DHT22;11536;50.860;4.286;2024-03-22T03:01:43;12.80;99.90
22738;DHT22;11536;50.860;4.286;2024-03-22T03:04:08;12.80;99.90
22738;DHT22;11536;50.860;4.286;2024-03-22T03:06:34;12.80;99.90
22738;DHT22;11536;50.860;4.286;2024-03-22T03:08:59;12.80;99.90
22738;DHT22;11536;50.860;4.286;2024-03-22T03:11:25;12.80;99.90
22738;DHT22;11536;50.860;4.286;2024-03-22T03:13:51;12.80;99.90
22738;DHT22;11536;50.860;4.286;2024-03-22T03:16:16;12.70;99.90
22738;DHT22;11536;50.860;4.286;2024-03-22T03:18:42;12.80;99.90
22738;DHT22;11536;50.860;4.286;2024-03-22T03:21:08;12.70;99.90
22738;DHT22;11536;50.860;4.286;2024-03-22T03:23:34;12.70;99.90
22738;DHT22;11536;50.860;4.286;2024-03-22T03:25:59;12.70;99.90
22738;DHT22;11536;50.860;4.286;2024-03-22T03:28:25;12.70;99.90
22738;DHT22;11536;50.860;4.286;2024-03-22T03:30:51;12.70;99.90
22738;DHT22;11536;50.860;4.286;2024-03-22T03:33:17;12.70;99.90
22738;DHT22;11536;50.860;4.286;2024-03-22T03:35:46;12.70;99.90
22738;DHT22;11536;50.860;4.286;2024-03-22T03:38:12;12.70;99.90
22738;DHT22;11536;50.860;4.286;2024-03-22T03:40:38;12.70;99.90
22738;DHT22;11536;50.860;4.286;2024-03-22T03:43:04;12.70;99.90
22738;DHT22;11536;50.860;4.286;2024-03-22T03:45:29;12.70;99.90
22738;DHT22;11536;50.860;4.286;2024-03-22T03:47:55;12.60;99.90
22738;DHT22;11536;50.860;4.286;2024-03-22T03:50:20;12.70;99.90
22738;DHT22;11536;50.860;4.286;2024-03-22T03:52:46;12.60;99.90
22738;DHT22;11536;50.860;4.286;2024-03-22T03:55:11;12.60;99.90
22738;DHT22;11536;50.860;4.286;2024-03-22T03:57:37;12.60;99.90
22738;DHT22;11536;50.860;4.286;2024-03-22T04:00:03;12.60;99.90
22738;DHT22;11536;50.860;4.286;2024-03-22T04:02:29;12.60;99.90
22738;DHT22;11536;50.860;4.286;2024-03-22T04:04:55;12.60;99.90
22738;DHT22;11536;50.860;4.286;2024-03-22T04:07:21;12.60;99.90
22738;DHT22;11536;50.860;4.286;2024-03-22T04:09:47;12.50;99.90
22738;DHT22;11536;50.860;4.286;2024-03-22T04:12:12;12.60;99.90
22738;DHT22;11536;50.860;4.286;2024-03-22T04:14:39;12.60;99.90
22738;DHT22;11536;50.860;4.286;2024-03-22T04:17:04;12.50;99.90
22738;DHT22;11536;50.860;4.286;2024-03-22T04:19:30;12.50;99.90
22738;DHT22;11536;50.860;4.286;2024-03-22T04:21:55;12.50;99.90
22738;DHT22;11536;50.860;4.286;2024-03-22T04:24:21;12.50;99.90
22738;DHT22;11536;50.860;4.286;2024-03-22T04:26:47;12.50;99.90
22738;DHT22;11536;50.860;4.286;2024-03-22T04:29:12;12.50;99.90
22738;DHT22;11536;50.860;4.286;2024-03-22T04:31:38;12.40;99.90
22738;DHT22;11536;50.860;4.286;2024-03-22T04:34:03;12.40;99.90
22738;DHT22;11536;50.860;4.286;2024-03-22T04:36:31;12.40;99.90
22738;DHT22;11536;50.860;4.286;2024-03-22T04:38:57;12.40;99.90
22738;DHT22;11536;50.860;4.286;2024-03-22T04:41:22;12.40;99.90
22738;DHT22;11536;50.860;4.286;2024-03-22T04:43:48;12.40;99.90
22738;DHT22;11536;50.860;4.286;2024-03-22T04:46:13;12.40;99.90
22738;DHT22;11536;50.860;4.286;2024-03-22T04:48:39;12.40;99.90
22738;DHT22;11536;50.860;4.286;2024-03-22T04:51:05;12.40;99.90
22738;DHT22;11536;50.860;4.286;2024-03-22T04:53:30;12.40;99.90
22738;DHT22;11536;50.860;4.286;2024-03-22T04:55:56;12.40;99.90
22738;DHT22;11536;50.860;4.286;2024-03-22T04:58:22;12.40;99.90
22738;DHT22;11536;50.860;4.286;2024-03-22T05:00:48;12.40;99.90
22738;DHT22;11536;50.860;4.286;2024-03-22T05:03:15;12.40;99.90
22738;DHT22;11536;50.860;4.286;2024-03-22T05:05:42;12.30;99.90
22738;DHT22;11536;50.860;4.286;2024-03-22T05:08:08;12.30;99.90
22738;DHT22;11536;50.860;4.286;2024-03-22T05:10:34;12.30;99.90
22738;DHT22;11536;50.860;4.286;2024-03-22T05:13:00;12.30;99.90
22738;DHT22;11536;50.860;4.286;2024-03-22T05:15:26;12.20;99.90
22738;DHT22;11536;50.860;4.286;2024-03-22T05:17:52;12.20;99.90
22738;DHT22;11536;50.860;4.286;2024-03-22T05:20:19;12.30;99.90
22738;DHT22;11536;50.860;4.286;2024-03-22T05:22:45;12.20;99.90
22738;DHT22;11536;50.860;4.286;2024-03-22T05:25:11;12.20;99.90
22738;DHT22;11536;50.860;4.286;2024-03-22T05:27:38;12.20;99.90
22738;DHT22;11536;50.860;4.286;2024-03-22T05:30:03;12.10;99.90
22738;DHT22;11536;50.860;4.286;2024-03-22T05:32:29;12.10;99.90
22738;DHT22;11536;50.860;4.286;2024-03-22T05:34:55;12.10;99.90
22738;DHT22;11536;50.860;4.286;2024-03-22T05:37:21;12.10;99.90
22738;DHT22;11536;50.860;4.286;2024-03-22T05:39:47;12.00;99.90
22738;DHT22;11536;50.860;4.286;2024-03-22T05:42:13;12.10;99.90
22738;DHT22;11536;50.860;4.286;2024-03-22T05:44:38;12.10;99.90
22738;DHT22;11536;50.860;4.286;2024-03-22T05:47:04;12.10;99.90
22738;DHT22;11536;50.860;4.286;2024-03-22T05:49:30;12.10;99.90
22738;DHT22;11536;50.860;4.286;2024-03-22T05:51:55;12.10;99.90
22738;DHT22;11536;50.860;4.286;2024-03-22T05:54:21;12.10;99.90
22738;DHT22;11536;50.860;4.286;2024-03-22T05:56:46;12.10;99.90
22738;DHT22;11536;50.860;4.286;2024-03-22T05:59:12;12.10;99.90
22738;DHT22;11536;50.860;4.286;2024-03-22T06:01:38;12.00;99.90
22738;DHT22;11536;50.860;4.286;2024-03-22T06:04:04;12.10;99.90
22738;DHT22;11536;50.860;4.286;2024-03-22T06:06:32;12.10;99.90
22738;DHT22;11536;50.860;4.286;2024-03-22T06:08:58;12.00;99.90
22738;DHT22;11536;50.860;4.286;2024-03-22T06:11:26;12.00;99.90
22738;DHT22;11536;50.860;4.286;2024-03-22T06:13:51;12.10;99.90
22738;DHT22;11536;50.860;4.286;2024-03-22T06:16:17;12.10;99.90
22738;DHT22;11536;50.860;4.286;2024-03-22T06:18:42;12.10;99.90
22738;DHT22;11536;50.860;4.286;2024-03-22T06:21:08;12.00;99.90
22738;DHT22;11536;50.860;4.286;2024-03-22T06:23:34;12.00;99.90
22738;DHT22;11536;50.860;4.286;2024-03-22T06:25:59;12.00;99.90
22738;DHT22;11536;50.860;4.286;2024-03-22T06:28:27;12.00;99.90
22738;DHT22;11536;50.860;4.286;2024-03-22T06:30:53;12.00;99.90
22738;DHT22;11536;50.860;4.286;2024-03-22T06:33:19;12.00;99.90
22738;DHT22;11536;50.860;4.286;2024-03-22T06:35:46;11.90;99.90
22738;DHT22;11536;50.860;4.286;2024-03-22T06:38:12;12.00;99.90
22738;DHT22;11536;50.860;4.286;2024-03-22T06:40:38;12.00;99.90
22738;DHT22;11536;50.860;4.286;2024-03-22T06:43:04;11.90;99.90
22738;DHT22;11536;50.860;4.286;2024-03-22T06:45:30;11.90;99.90
22738;DHT22;11536;50.860;4.286;2024-03-22T06:47:55;12.00;99.90
22738;DHT22;11536;50.860;4.286;2024-03-22T06:50:21;12.00;99.90
22738;DHT22;11536;50.860;4.286;2024-03-22T06:52:56;12.00;99.90
22738;DHT22;11536;50.860;4.286;2024-03-22T06:55:21;12.00;99.90
22738;DHT22;11536;50.860;4.286;2024-03-22T06:57:49;12.00;99.90
22738;DHT22;11536;50.860;4.286;2024-03-22T07:00:18;12.00;99.90
22738;DHT22;11536;50.860;4.286;2024-03-22T07:02:44;12.00;99.90
22738;DHT22;11536;50.860;4.286;2024-03-22T07:05:10;11.90;99.90
22738;DHT22;11536;50.860;4.286;2024-03-22T07:07:37;12.00;99.90
22738;DHT22;11536;50.860;4.286;2024-03-22T07:10:03;12.00;99.90
22738;DHT22;11536;50.860;4.286;2024-03-22T07:12:31;12.00;99.90
22738;DHT22;11536;50.860;4.286;2024-03-22T07:14:58;12.00;99.90
22738;DHT22;11536;50.860;4.286;2024-03-22T07:17:24;11.90;99.90
22738;DHT22;11536;50.860;4.286;2024-03-22T07:19:51;11.90;99.90
22738;DHT22;11536;50.860;4.286;2024-03-22T07:22:17;11.90;99.90
22738;DHT22;11536;50.860;4.286;2024-03-22T07:24:43;11.90;99.90
22738;DHT22;11536;50.860;4.286;2024-03-22T07:27:08;11.90;99.90
22738;DHT22;11536;50.860;4.286;2024-03-22T07:29:35;11.90;99.90
22738;DHT22;11536;50.860;4.286;2024-03-22T07:32:00;11.90;99.90
22738;DHT22;11536;50.860;4.286;2024-03-22T07:34:26;11.90;99.90
22738;DHT22;11536;50.860;4.286;2024-03-22T07:36:51;11.90;99.90
22738;DHT22;11536;50.860;4.286;2024-03-22T07:39:17;11.90;99.90
22738;DHT22;11536;50.860;4.286;2024-03-22T07:41:43;11.90;99.90
22738;DHT22;11536;50.860;4.286;2024-03-22T07:44:09;11.90;99.90
22738;DHT22;11536;50.860;4.286;2024-03-22T07:46:34;11.90;99.90
22738;DHT22;11536;50.860;4.286;2024-03-22T07:49:00;12.00;99.90
22738;DHT22;11536;50.860;4.286;2024-03-22T07:51:26;11.90;99.90
22738;DHT22;11536;50.860;4.286;2024-03-22T07:53:51;11.90;99.90
22738;DHT22;11536;50.860;4.286;2024-03-22T07:56:17;11.90;99.90
22738;DHT22;11536;50.860;4.286;2024-03-22T07:58:43;11.90;99.90
22738;DHT22;11536;50.860;4.286;2024-03-22T08:01:09;11.90;99.90
22738;DHT22;11536;50.860;4.286;2024-03-22T08:03:34;11.90;99.90
22738;DHT22;11536;50.860;4.286;2024-03-22T08:06:00;11.90;99.90
22738;DHT22;11536;50.860;4.286;2024-03-22T08:08:26;11.90;99.90
22738;DHT22;11536;50.860;4.286;2024-03-22T08:10:51;11.90;99.90
22738;DHT22;11536;50.860;4.286;2024-03-22T08:13:17;11.90;99.90
22738;DHT22;11536;50.860;4.286;2024-03-22T08:15:42;11.90;99.90
22738;DHT22;11536;50.860;4.286;2024-03-22T08:18:11;12.00;99.90
22738;DHT22;11536;50.860;4.286;2024-03-22T08:20:36;12.00;99.90
22738;DHT22;11536;50.860;4.286;2024-03-22T08:23:07;12.00;99.90
22738;DHT22;11536;50.860;4.286;2024-03-22T08:25:32;12.00;99.90
22738;DHT22;11536;50.860;4.286;2024-03-22T08:27:59;12.00;99.90
22738;DHT22;11536;50.860;4.286;2024-03-22T08:30:25;12.10;99.90
22738;DHT22;11536;50.860;4.286;2024-03-22T08:32:52;12.10;99.90
22738;DHT22;11536;50.860;4.286;2024-03-22T08:35:18;12.20;99.90
22738;DHT22;11536;50.860;4.286;2024-03-22T08:37:43;12.20;99.90
22738;DHT22;11536;50.860;4.286;2024-03-22T08:40:09;12.20;99.90
22738;DHT22;11536;50.860;4.286;2024-03-22T08:42:36;12.30;99.90
22738;DHT22;11536;50.860;4.286;2024-03-22T08:45:02;12.40;99.90
22738;DHT22;11536;50.860;4.286;2024-03-22T08:47:29;12.30;99.90
22738;DHT22;11536;50.860;4.286;2024-03-22T08:49:55;12.30;99.90
22738;DHT22;11536;50.860;4.286;2024-03-22T08:52:23;12.40;99.90
22738;DHT22;11536;50.860;4.286;2024-03-22T08:54:50;12.40;99.90
22738;DHT22;11536;50.860;4.286;2024-03-22T08:57:16;12.50;99.90
22738;DHT22;11536;50.860;4.286;2024-03-22T08:59:41;12.50;99.90
22738;DHT22;11536;50.860;4.286;2024-03-22T09:02:07;12.50;99.90
22738;DHT22;11536;50.860;4.286;2024-03-22T09:04:32;12.50;99.90
22738;DHT22;11536;50.860;4.286;2024-03-22T09:06:58;12.60;99.90
22738;DHT22;11536;50.860;4.286;2024-03-22T09:09:24;12.60;99.90
22738;DHT22;11536;50.860;4.286;2024-03-22T09:11:49;12.60;99.90
22738;DHT22;11536;50.860;4.286;2024-03-22T09:14:15;12.70;99.90
22738;DHT22;11536;50.860;4.286;2024-03-22T09:16:42;12.70;99.90
22738;DHT22;11536;50.860;4.286;2024-03-22T09:19:08;12.70;99.90
22738;DHT22;11536;50.860;4.286;2024-03-22T09:21:33;12.70;99.90
22738;DHT22;11536;50.860;4.286;2024-03-22T09:23:59;12.70;99.90
22738;DHT22;11536;50.860;4.286;2024-03-22T09:26:25;12.80;99.90
22738;DHT22;11536;50.860;4.286;2024-03-22T09:28:51;12.90;99.90
22738;DHT22;11536;50.860;4.286;2024-03-22T09:31:17;12.90;99.90
22738;DHT22;11536;50.860;4.286;2024-03-22T09:33:43;12.80;99.90
22738;DHT22;11536;50.860;4.286;2024-03-22T09:36:08;12.80;99.90
22738;DHT22;11536;50.860;4.286;2024-03-22T09:38:34;12.80;99.90
22738;DHT22;11536;50.860;4.286;2024-03-22T09:41:00;12.90;99.90
22738;DHT22;11536;50.860;4.286;2024-03-22T09:43:27;12.90;99.90
22738;DHT22;11536;50.860;4.286;2024-03-22T09:45:55;12.90;99.90
22738;DHT22;11536;50.860;4.286;2024-03-22T09:48:21;13.00;99.90
22738;DHT22;11536;50.860;4.286;2024-03-22T09:50:47;13.00;99.90
22738;DHT22;11536;50.860;4.286;2024-03-22T09:53:13;13.00;99.90
22738;DHT22;11536;50.860;4.286;2024-03-22T09:55:45;13.00;99.90
22738;DHT22;11536;50.860;4.286;2024-03-22T09:58:10;13.00;99.90
22738;DHT22;11536;50.860;4.286;2024-03-22T10:00:36;13.00;99.90
22738;DHT22;11536;50.860;4.286;2024-03-22T10:03:03;13.10;99.90
22738;DHT22;11536;50.860;4.286;2024-03-22T10:05:30;13.10;99.90
22738;DHT22;11536;50.860;4.286;2024-03-22T10:07:55;13.10;99.90
22738;DHT22;11536;50.860;4.286;2024-03-22T10:10:21;13.10;99.90
22738;DHT22;11536;50.860;4.286;2024-03-22T10:12:48;13.20;99.90
22738;DHT22;11536;50.860;4.286;2024-03-22T10:15:14;13.20;99.90
22738;DHT22;11536;50.860;4.286;2024-03-22T10:17:39;13.20;99.90
22738;DHT22;11536;50.860;4.286;2024-03-22T10:20:06;13.20;99.90
22738;DHT22;11536;50.860;4.286;2024-03-22T10:22:43;13.10;99.90
22738;DHT22;11536;50.860;4.286;2024-03-22T10:25:10;13.10;99.90
22738;DHT22;11536;50.860;4.286;2024-03-22T10:27:38;13.10;99.90
22738;DHT22;11536;50.860;4.286;2024-03-22T10:30:08;13.20;99.90
22738;DHT22;11536;50.860;4.286;2024-03-22T10:32:35;13.30;99.90
22738;DHT22;11536;50.860;4.286;2024-03-22T10:35:03;13.30;99.90
22738;DHT22;11536;50.860;4.286;2024-03-22T10:37:35;13.30;99.90
22738;DHT22;11536;50.860;4.286;2024-03-22T10:40:04;13.40;99.90
22738;DHT22;11536;50.860;4.286;2024-03-22T10:42:37;13.40;99.90
22738;DHT22;11536;50.860;4.286;2024-03-22T10:45:04;13.50;99.90
22738;DHT22;11536;50.860;4.286;2024-03-22T10:47:31;13.40;99.90
22738;DHT22;11536;50.860;4.286;2024-03-22T10:50:11;13.50;99.90
22738;DHT22;11536;50.860;4.286;2024-03-22T10:52:51;13.50;99.90
22738;DHT22;11536;50.860;4.286;2024-03-22T10:55:39;13.50;99.90
22738;DHT22;11536;50.860;4.286;2024-03-22T10:58:05;13.50;99.90
22738;DHT22;11536;50.860;4.286;2024-03-22T11:00:33;13.40;99.90
22738;DHT22;11536;50.860;4.286;2024-03-22T11:03:02;13.40;99.90
22738;DHT22;11536;50.860;4.286;2024-03-22T11:05:28;13.40;99.90
22738;DHT22;11536;50.860;4.286;2024-03-22T11:08:00;13.50;99.90
22738;DHT22;11536;50.860;4.286;2024-03-22T11:10:28;13.50;99.90
22738;DHT22;11536;50.860;4.286;2024-03-22T11:12:55;13.50;99.90
22738;DHT22;11536;50.860;4.286;2024-03-22T11:15:22;13.50;99.90
22738;DHT22;11536;50.860;4.286;2024-03-22T11:17:47;13.50;99.90
22738;DHT22;11536;50.860;4.286;2024-03-22T11:20:15;13.50;99.90
22738;DHT22;11536;50.860;4.286;2024-03-22T11:22:41;13.60;99.90
22738;DHT22;11536;50.860;4.286;2024-03-22T11:25:06;13.60;99.90
22738;DHT22;11536;50.860;4.286;2024-03-22T11:27:33;13.50;99.90
22738;DHT22;11536;50.860;4.286;2024-03-22T11:29:58;13.50;99.90
22738;DHT22;11536;50.860;4.286;2024-03-22T11:32:24;13.40;99.90
22738;DHT22;11536;50.860;4.286;2024-03-22T11:34:50;13.50;99.90
22738;DHT22;11536;50.860;4.286;2024-03-22T11:37:15;13.50;99.90
22738;DHT22;11536;50.860;4.286;2024-03-22T11:39:41;13.50;99.90
22738;DHT22;11536;50.860;4.286;2024-03-22T11:42:08;13.50;99.90
22738;DHT22;11536;50.860;4.286;2024-03-22T11:44:37;13.50;99.90
22738;DHT22;11536;50.860;4.286;2024-03-22T11:47:04;13.50;99.90
22738;DHT22;11536;50.860;4.286;2024-03-22T11:49:30;13.60;99.90
22738;DHT22;11536;50.860;4.286;2024-03-22T11:51:58;13.60;99.90
22738;DHT22;11536;50.860;4.286;2024-03-22T11:54:25;13.60;99.90
22738;DHT22;11536;50.860;4.286;2024-03-22T11:56:51;13.60;99.90
22738;DHT22;11536;50.860;4.286;2024-03-22T11:59:19;13.60;99.90
22738;DHT22;11536;50.860;4.286;2024-03-22T12:01:46;13.60;99.90
22738;DHT22;11536;50.860;4.286;2024-03-22T12:04:11;13.50;99.90
22738;DHT22;11536;50.860;4.286;2024-03-22T12:06:44;13.60;99.90
22738;DHT22;11536;50.860;4.286;2024-03-22T12:09:21;13.60;99.90
22738;DHT22;11536;50.860;4.286;2024-03-22T12:11:50;13.70;99.90
22738;DHT22;11536;50.860;4.286;2024-03-22T12:14:15;13.60;99.90
22738;DHT22;11536;50.860;4.286;2024-03-22T12:16:41;13.70;99.90
22738;DHT22;11536;50.860;4.286;2024-03-22T12:19:07;13.70;99.90
22738;DHT22;11536;50.860;4.286;2024-03-22T12:21:33;13.60;99.90
22738;DHT22;11536;50.860;4.286;2024-03-22T12:23:58;13.50;99.90
22738;DHT22;11536;50.860;4.286;2024-03-22T12:26:24;13.50;99.90
22738;DHT22;11536;50.860;4.286;2024-03-22T12:28:50;13.50;99.90
22738;DHT22;11536;50.860;4.286;2024-03-22T12:31:17;13.50;99.90
22738;DHT22;11536;50.860;4.286;2024-03-22T12:33:44;13.50;99.90
22738;DHT22;11536;50.860;4.286;2024-03-22T12:36:09;13.50;99.90
22738;DHT22;11536;50.860;4.286;2024-03-22T12:38:35;13.60;99.90
22738;DHT22;11536;50.860;4.286;2024-03-22T12:41:01;13.50;99.90
22738;DHT22;11536;50.860;4.286;2024-03-22T12:43:26;13.50;99.90
22738;DHT22;11536;50.860;4.286;2024-03-22T12:45:52;13.50;99.90
22738;DHT22;11536;50.860;4.286;2024-03-22T12:48:17;13.60;99.90
22738;DHT22;11536;50.860;4.286;2024-03-22T12:50:44;13.50;99.90
22738;DHT22;11536;50.860;4.286;2024-03-22T12:53:10;13.50;99.90
22738;DHT22;11536;50.860;4.286;2024-03-22T12:55:36;13.50;99.90
22738;DHT22;11536;50.860;4.286;2024-03-22T12:58:01;13.50;99.90
22738;DHT22;11536;50.860;4.286;2024-03-22T13:00:28;13.50;99.90
22738;DHT22;11536;50.860;4.286;2024-03-22T13:02:53;13.50;99.90
22738;DHT22;11536;50.860;4.286;2024-03-22T13:05:19;13.60;99.90
22738;DHT22;11536;50.860;4.286;2024-03-22T13:07:44;13.60;99.90
22738;DHT22;11536;50.860;4.286;2024-03-22T13:10:10;13.60;99.90
22738;DHT22;11536;50.860;4.286;2024-03-22T13:12:36;13.60;99.90
22738;DHT22;11536;50.860;4.286;2024-03-22T13:15:02;13.60;99.90
22738;DHT22;11536;50.860;4.286;2024-03-22T13:17:27;13.60;99.90
22738;DHT22;11536;50.860;4.286;2024-03-22T13:19:53;13.50;99.90
22738;DHT22;11536;50.860;4.286;2024-03-22T13:22:19;13.50;99.90
22738;DHT22;11536;50.860;4.286;2024-03-22T13:24:45;13.50;99.90
22738;DHT22;11536;50.860;4.286;2024-03-22T13:27:11;13.50;99.90
22738;DHT22;11536;50.860;4.286;2024-03-22T13:29:41;13.50;99.90
22738;DHT22;11536;50.860;4.286;2024-03-22T13:32:07;13.50;99.90
22738;DHT22;11536;50.860;4.286;2024-03-22T13:34:36;13.50;99.90
22738;DHT22;11536;50.860;4.286;2024-03-22T13:37:02;13.50;99.90
22738;DHT22;11536;50.860;4.286;2024-03-22T13:39:28;13.50;99.90
22738;DHT22;11536;50.860;4.286;2024-03-22T13:41:58;13.50;99.90
22738;DHT22;11536;50.860;4.286;2024-03-22T13:44:24;13.40;99.90
22738;DHT22;11536;50.860;4.286;2024-03-22T13:46:50;13.40;99.90
22738;DHT22;11536;50.860;4.286;2024-03-22T13:49:17;13.40;99.90
22738;DHT22;11536;50.860;4.286;2024-03-22T13:51:46;13.50;99.90
22738;DHT22;11536;50.860;4.286;2024-03-22T13:54:12;13.50;99.90
22738;DHT22;11536;50.860;4.286;2024-03-22T13:56:38;13.50;99.90
22738;DHT22;11536;50.860;4.286;2024-03-22T13:59:04;13.40;99.90
22738;DHT22;11536;50.860;4.286;2024-03-22T14:01:36;13.50;99.90
22738;DHT22;11536;50.860;4.286;2024-03-22T14:04:05;13.40;99.90
22738;DHT22;11536;50.860;4.286;2024-03-22T14:06:31;13.50;99.90
22738;DHT22;11536;50.860;4.286;2024-03-22T14:08:58;13.40;99.90
22738;DHT22;11536;50.860;4.286;2024-03-22T14:11:29;13.50;99.90
22738;DHT22;11536;50.860;4.286;2024-03-22T14:13:59;13.50;99.90
22738;DHT22;11536;50.860;4.286;2024-03-22T14:16:25;13.50;99.90
22738;DHT22;11536;50.860;4.286;2024-03-22T14:18:51;13.50;99.90
22738;DHT22;11536;50.860;4.286;2024-03-22T14:21:18;13.40;99.90
22738;DHT22;11536;50.860;4.286;2024-03-22T14:23:46;13.40;99.90
22738;DHT22;11536;50.860;4.286;2024-03-22T14:26:12;13.40;99.90
22738;DHT22;11536;50.860;4.286;2024-03-22T14:28:38;13.30;99.90
22738;DHT22;11536;50.860;4.286;2024-03-22T14:31:06;13.30;99.90
22738;DHT22;11536;50.860;4.286;2024-03-22T14:33:34;13.30;99.90
22738;DHT22;11536;50.860;4.286;2024-03-22T14:36:00;13.30;99.90
22738;DHT22;11536;50.860;4.286;2024-03-22T14:38:26;13.20;99.90
22738;DHT22;11536;50.860;4.286;2024-03-22T14:40:52;13.20;99.90
22738;DHT22;11536;50.860;4.286;2024-03-22T14:43:18;13.20;99.90
22738;DHT22;11536;50.860;4.286;2024-03-22T14:45:44;13.20;99.90
22738;DHT22;11536;50.860;4.286;2024-03-22T14:48:09;13.10;99.90
22738;DHT22;11536;50.860;4.286;2024-03-22T14:50:38;13.10;99.90
22738;DHT22;11536;50.860;4.286;2024-03-22T14:53:04;13.10;99.90
22738;DHT22;11536;50.860;4.286;2024-03-22T14:55:30;13.10;99.90
22738;DHT22;11536;50.860;4.286;2024-03-22T14:57:56;13.10;99.90
22738;DHT22;11536;50.860;4.286;2024-03-22T15:00:22;13.10;99.90
22738;DHT22;11536;50.860;4.286;2024-03-22T15:02:52;13.10;99.90
22738;DHT22;11536;50.860;4.286;2024-03-22T15:05:17;13.00;99.90
22738;DHT22;11536;50.860;4.286;2024-03-22T15:07:43;13.10;99.90
22738;DHT22;11536;50.860;4.286;2024-03-22T15:10:09;13.10;99.90
22738;DHT22;11536;50.860;4.286;2024-03-22T15:12:34;13.10;99.90
22738;DHT22;11536;50.860;4.286;2024-03-22T15:15:00;13.10;99.90
22738;DHT22;11536;50.860;4.286;2024-03-22T15:17:26;13.10;99.90
22738;DHT22;11536;50.860;4.286;2024-03-22T15:19:51;13.00;99.90
22738;DHT22;11536;50.860;4.286;2024-03-22T15:22:17;13.00;99.90
22738;DHT22;11536;50.860;4.286;2024-03-22T15:24:45;13.00;99.90